Time;durP1;ratioP1;P1;durP2;ratioP2;P2;SDS_P1;SDS_P2;PMS_P1;PMS_P2;Temp;Humidity;BMP_temperature;BMP_pressure;BME280_temperature;BME280_humidity;BME280_pressure;Samples;Min_cycle;Max_cycle;Signal;HPM_P1;HPM_P2
2022/09/22 00:01:40;;;;;;;7.35;3.47;;;;;;;;;;4998897;28;20046;-83
2022/09/22 00:04:08;;;;;;;7.32;3.67;;;;;;;;;;5005355;28;20038;-84
2022/09/22 00:06:36;;;;;;;9.30;3.30;;;;;;;;;;5005280;28;20038;-84
2022/09/22 00:09:03;;;;;;;7.75;3.88;;;;;;;;;;5006933;28;20292;-83
2022/09/22 00:11:30;;;;;;;7.50;4.25;;;;;;;;;;5005527;28;20480;-83
2022/09/22 00:14:20;;;;;;;6.47;3.50;;;;;;;;;;5007113;28;20447;-83
2022/09/22 00:16:48;;;;;;;5.88;3.00;;;;;;;;;;4996854;28;20058;-83
2022/09/22 00:19:15;;;;;;;6.60;3.38;;;;;;;;;;5006486;28;20129;-84
2022/09/22 00:21:41;;;;;;;7.45;3.35;;;;;;;;;;5006910;28;20053;-83
2022/09/22 00:24:07;;;;;;;6.55;3.38;;;;;;;;;;5006196;28;20537;-84
2022/09/22 00:26:34;;;;;;;6.80;3.67;;;;;;;;;;5005820;28;20100;-83
2022/09/22 00:29:00;;;;;;;9.95;3.58;;;;;;;;;;5009181;28;20074;-83
2022/09/22 00:31:26;;;;;;;9.15;4.45;;;;;;;;;;5005934;28;20049;-83
2022/09/22 00:33:53;;;;;;;8.43;3.90;;;;;;;;;;5006961;28;20045;-83
2022/09/22 00:36:20;;;;;;;8.45;4.15;;;;;;;;;;5005184;28;20123;-83
2022/09/22 00:38:49;;;;;;;7.20;3.80;;;;;;;;;;5005511;28;20445;-83
2022/09/22 00:41:17;;;;;;;9.90;4.72;;;;;;;;;;5002498;28;20381;-83
2022/09/22 00:43:46;;;;;;;7.65;4.22;;;;;;;;;;5005605;28;20062;-83
2022/09/22 00:46:14;;;;;;;9.38;4.38;;;;;;;;;;5007698;28;20132;-84
2022/09/22 00:48:43;;;;;;;10.70;4.30;;;;;;;;;;5011415;28;20045;-84
2022/09/22 00:51:11;;;;;;;9.40;4.32;;;;;;;;;;5011848;28;20038;-83
2022/09/22 00:53:37;;;;;;;7.70;4.10;;;;;;;;;;5012464;28;20041;-84
2022/09/22 00:56:17;;;;;;;8.05;4.90;;;;;;;;;;5007167;28;20041;-83
2022/09/22 00:58:45;;;;;;;11.50;4.80;;;;;;;;;;5008081;28;21799;-84
2022/09/22 01:01:13;;;;;;;7.75;4.88;;;;;;;;;;5012778;28;20042;-84
2022/09/22 01:03:41;;;;;;;11.23;4.65;;;;;;;;;;5010859;28;20116;-83
2022/09/22 01:06:09;;;;;;;8.88;5.07;;;;;;;;;;5002106;28;20048;-83
2022/09/22 01:08:36;;;;;;;9.82;4.95;;;;;;;;;;5008390;28;20054;-83
2022/09/22 01:11:02;;;;;;;10.23;5.25;;;;;;;;;;5004893;28;20058;-83
2022/09/22 01:13:46;;;;;;;7.53;4.93;;;;;;;;;;5002978;28;20506;-83
2022/09/22 01:16:12;;;;;;;7.88;4.30;;;;;;;;;;5009893;28;20042;-83
2022/09/22 01:19:01;;;;;;;10.00;4.47;;;;;;;;;;5007958;28;20042;-84
2022/09/22 01:21:41;;;;;;;9.57;4.72;;;;;;;;;;5012358;28;20048;-83
2022/09/22 01:24:36;;;;;;;8.88;4.72;;;;;;;;;;5003919;28;20109;-83
2022/09/22 01:27:35;;;;;;;9.55;3.97;;;;;;;;;;4971139;28;20431;-83
2022/09/22 01:30:04;;;;;;;10.20;4.05;;;;;;;;;;4913070;29;20450;-83
2022/09/22 01:32:41;;;;;;;7.38;4.10;;;;;;;;;;4913677;29;20059;-83
2022/09/22 01:35:07;;;;;;;8.07;3.78;;;;;;;;;;4913453;29;20063;-83
2022/09/22 01:37:45;;;;;;;9.63;3.88;;;;;;;;;;4913355;29;20094;-83
2022/09/22 01:40:12;;;;;;;6.40;3.58;;;;;;;;;;4912402;29;20131;-84
2022/09/22 01:42:43;;;;;;;7.53;3.90;;;;;;;;;;4912974;29;20103;-83
2022/09/22 01:45:11;;;;;;;10.60;4.93;;;;;;;;;;4897155;29;20112;-83
2022/09/22 01:47:42;;;;;;;9.93;4.25;;;;;;;;;;4914694;29;20469;-84
2022/09/22 01:50:13;;;;;;;8.35;4.45;;;;;;;;;;4916066;29;20052;-83
2022/09/22 01:52:40;;;;;;;9.18;5.00;;;;;;;;;;4918073;29;20546;-83
2022/09/22 01:55:12;;;;;;;9.40;4.70;;;;;;;;;;4915682;29;20127;-83
2022/09/22 01:57:45;;;;;;;12.40;5.55;;;;;;;;;;4917443;29;20103;-83
2022/09/22 02:00:12;;;;;;;8.88;4.90;;;;;;;;;;4916624;29;20052;-84
2022/09/22 02:02:41;;;;;;;9.23;5.05;;;;;;;;;;4924293;29;20539;-83
2022/09/22 02:05:29;;;;;;;10.98;5.10;;;;;;;;;;4973413;28;20053;-83
2022/09/22 02:07:56;;;;;;;9.88;5.53;;;;;;;;;;5013252;28;20050;-83
2022/09/22 02:10:25;;;;;;;11.95;5.75;;;;;;;;;;5012724;28;20050;-84
2022/09/22 02:12:53;;;;;;;11.60;5.80;;;;;;;;;;5004745;28;20054;-83
2022/09/22 02:18:09;;;;;;;8.57;6.07;;;;;;;;;;5013460;28;20049;-84
2022/09/22 02:20:36;;;;;;;13.80;6.82;;;;;;;;;;5010560;28;20041;-83
2022/09/22 02:23:02;;;;;;;8.68;6.35;;;;;;;;;;5014463;28;20042;-84
2022/09/22 02:25:28;;;;;;;9.48;6.47;;;;;;;;;;5010303;28;20376;-83
2022/09/22 02:27:55;;;;;;;9.75;5.93;;;;;;;;;;5015552;28;20050;-84
2022/09/22 02:30:22;;;;;;;8.05;5.68;;;;;;;;;;5013172;28;20042;-84
2022/09/22 02:32:49;;;;;;;8.48;5.07;;;;;;;;;;5046876;28;20050;-83
2022/09/22 02:35:16;;;;;;;8.18;5.50;;;;;;;;;;5014194;28;20045;-84
2022/09/22 02:37:51;;;;;;;9.27;5.28;;;;;;;;;;5015330;28;20081;-83
2022/09/22 02:40:28;;;;;;;10.90;5.43;;;;;;;;;;5010494;28;20042;-83
2022/09/22 02:43:14;;;;;;;11.43;5.25;;;;;;;;;;5014043;28;20080;-84
2022/09/22 02:45:46;;;;;;;8.60;5.20;;;;;;;;;;5014316;28;20069;-83
2022/09/22 02:48:19;;;;;;;8.57;5.25;;;;;;;;;;4999111;28;20041;-83
2022/09/22 02:50:45;;;;;;;9.93;4.85;;;;;;;;;;5011935;28;20049;-84
2022/09/22 02:53:13;;;;;;;8.00;4.55;;;;;;;;;;5016066;28;20046;-84
2022/09/22 02:55:39;;;;;;;8.20;4.93;;;;;;;;;;5034640;28;20042;-84
2022/09/22 02:58:05;;;;;;;11.45;5.05;;;;;;;;;;5003258;28;20060;-84
2022/09/22 03:00:31;;;;;;;12.35;5.25;;;;;;;;;;5016153;28;20046;-84
2022/09/22 03:02:58;;;;;;;10.85;5.10;;;;;;;;;;5036034;28;20054;-84
2022/09/22 03:05:24;;;;;;;9.05;5.00;;;;;;;;;;5006438;28;20042;-84
2022/09/22 03:07:50;;;;;;;8.77;4.20;;;;;;;;;;5012715;28;20515;-83
2022/09/22 03:10:16;;;;;;;8.90;4.32;;;;;;;;;;5042611;28;20046;-83
2022/09/22 03:12:42;;;;;;;8.70;4.00;;;;;;;;;;5014312;28;20048;-83
2022/09/22 03:15:10;;;;;;;6.50;3.80;;;;;;;;;;5009075;28;20060;-83
2022/09/22 03:17:36;;;;;;;5.95;4.03;;;;;;;;;;5034395;28;20492;-83
2022/09/22 03:20:03;;;;;;;9.35;4.40;;;;;;;;;;5011007;28;20435;-83
2022/09/22 03:22:29;;;;;;;10.45;4.60;;;;;;;;;;5006770;28;20049;-83
2022/09/22 03:24:55;;;;;;;8.05;4.32;;;;;;;;;;5012811;28;20042;-83
2022/09/22 03:27:21;;;;;;;8.68;4.85;;;;;;;;;;5013654;28;20045;-83
2022/09/22 03:29:47;;;;;;;8.48;5.15;;;;;;;;;;5013317;28;20050;-83
2022/09/22 03:32:13;;;;;;;10.45;5.25;;;;;;;;;;5008518;28;20042;-83
2022/09/22 03:34:39;;;;;;;8.02;4.85;;;;;;;;;;5000037;28;20038;-83
2022/09/22 03:37:05;;;;;;;9.32;5.28;;;;;;;;;;5003486;28;20451;-83
2022/09/22 03:39:33;;;;;;;8.98;5.38;;;;;;;;;;5012020;28;20095;-83
2022/09/22 03:42:00;;;;;;;9.20;5.60;;;;;;;;;;5001892;28;20049;-83
2022/09/22 03:44:26;;;;;;;10.50;5.78;;;;;;;;;;4997437;28;20118;-83
2022/09/22 03:46:52;;;;;;;10.90;5.40;;;;;;;;;;5010602;28;20077;-83
2022/09/22 03:49:18;;;;;;;10.50;5.32;;;;;;;;;;5010407;28;20049;-83
2022/09/22 03:51:44;;;;;;;9.45;5.90;;;;;;;;;;5011008;28;20045;-83
2022/09/22 03:54:11;;;;;;;12.65;6.00;;;;;;;;;;5013117;28;20050;-82
2022/09/22 03:56:38;;;;;;;8.02;5.55;;;;;;;;;;5011561;28;20392;-83
2022/09/22 03:59:04;;;;;;;10.27;6.20;;;;;;;;;;5045397;28;20232;-83
2022/09/22 04:01:31;;;;;;;9.05;6.20;;;;;;;;;;5010893;28;20156;-83
2022/09/22 04:03:57;;;;;;;9.50;5.95;;;;;;;;;;4996517;28;20046;-83
2022/09/22 04:06:23;;;;;;;10.63;6.45;;;;;;;;;;5009917;28;20052;-83
2022/09/22 04:08:49;;;;;;;8.98;6.13;;;;;;;;;;5006879;28;20061;-83
2022/09/22 04:11:15;;;;;;;10.23;6.82;;;;;;;;;;5010090;28;20050;-83
2022/09/22 04:13:41;;;;;;;8.40;6.47;;;;;;;;;;5008270;28;20057;-82
2022/09/22 04:16:07;;;;;;;12.70;6.75;;;;;;;;;;5003205;28;20046;-83
2022/09/22 04:18:33;;;;;;;9.27;6.65;;;;;;;;;;5006828;28;20044;-83
2022/09/22 04:21:00;;;;;;;12.27;7.78;;;;;;;;;;5008599;28;20484;-83
2022/09/22 04:23:26;;;;;;;12.60;7.72;;;;;;;;;;5008294;28;20064;-83
2022/09/22 04:25:52;;;;;;;11.65;7.70;;;;;;;;;;5008725;28;20057;-83
2022/09/22 04:28:18;;;;;;;14.30;8.63;;;;;;;;;;5013007;28;20046;-83
2022/09/22 04:30:46;;;;;;;12.45;8.23;;;;;;;;;;5011103;28;20464;-83
2022/09/22 04:33:12;;;;;;;14.27;8.50;;;;;;;;;;5012248;28;20052;-83
2022/09/22 04:35:38;;;;;;;12.65;8.43;;;;;;;;;;5009092;28;20092;-83
2022/09/22 04:38:04;;;;;;;12.82;8.18;;;;;;;;;;5012649;28;20046;-83
2022/09/22 04:40:30;;;;;;;12.35;9.02;;;;;;;;;;5012728;28;20057;-83
2022/09/22 04:42:56;;;;;;;16.10;8.93;;;;;;;;;;5012981;28;20044;-83
2022/09/22 04:45:23;;;;;;;13.02;9.07;;;;;;;;;;5010054;28;20037;-83
2022/09/22 04:47:50;;;;;;;14.48;9.13;;;;;;;;;;5004926;28;20121;-82
2022/09/22 04:50:16;;;;;;;12.68;8.88;;;;;;;;;;5024719;28;20483;-83
2022/09/22 04:52:46;;;;;;;15.30;9.27;;;;;;;;;;5011391;28;20114;-83
2022/09/22 04:55:12;;;;;;;13.90;9.20;;;;;;;;;;5011482;28;20495;-83
2022/09/22 04:57:38;;;;;;;14.07;9.65;;;;;;;;;;5011963;28;20037;-83
2022/09/22 05:00:07;;;;;;;12.52;9.15;;;;;;;;;;5011416;28;20494;-82
2022/09/22 05:02:34;;;;;;;12.38;10.00;;;;;;;;;;5012134;28;20046;-82
2022/09/22 05:05:00;;;;;;;16.60;9.20;;;;;;;;;;5011528;28;20034;-82
2022/09/22 05:07:26;;;;;;;12.73;9.40;;;;;;;;;;5008918;28;20053;-82
2022/09/22 05:09:52;;;;;;;15.23;9.55;;;;;;;;;;5009692;28;20050;-82
2022/09/22 05:12:20;;;;;;;14.02;9.65;;;;;;;;;;5007126;28;20046;-82
2022/09/22 05:14:47;;;;;;;10.82;8.95;;;;;;;;;;5009976;28;20495;-82
2022/09/22 05:17:13;;;;;;;11.55;9.20;;;;;;;;;;5040821;28;20416;-84
2022/09/22 05:19:40;;;;;;;14.40;9.52;;;;;;;;;;5009557;28;20046;-84
2022/09/22 05:22:06;;;;;;;13.63;10.05;;;;;;;;;;5011567;28;20046;-84
2022/09/22 05:24:35;;;;;;;12.60;9.52;;;;;;;;;;5002404;28;20133;-85
2022/09/22 05:27:01;;;;;;;14.35;9.93;;;;;;;;;;5010991;28;20053;-83
2022/09/22 05:29:27;;;;;;;12.50;9.35;;;;;;;;;;5014100;28;20041;-83
2022/09/22 05:31:53;;;;;;;16.00;9.63;;;;;;;;;;5004592;28;20045;-83
2022/09/22 05:34:19;;;;;;;13.57;9.77;;;;;;;;;;5013820;28;20123;-84
2022/09/22 05:36:45;;;;;;;16.27;9.90;;;;;;;;;;5013244;28;20134;-83
2022/09/22 05:39:11;;;;;;;13.70;10.63;;;;;;;;;;5014953;28;20084;-83
2022/09/22 05:41:37;;;;;;;14.90;10.23;;;;;;;;;;5012056;28;20073;-83
2022/09/22 05:44:03;;;;;;;12.57;10.45;;;;;;;;;;5016001;28;20124;-83
2022/09/22 05:46:29;;;;;;;13.48;10.52;;;;;;;;;;5011091;28;20120;-85
2022/09/22 05:48:55;;;;;;;15.68;11.27;;;;;;;;;;5013039;28;20076;-84
2022/09/22 05:51:21;;;;;;;16.40;10.48;;;;;;;;;;5014859;28;20081;-83
2022/09/22 05:53:47;;;;;;;12.55;10.18;;;;;;;;;;5015705;28;20038;-85
2022/09/22 05:56:13;;;;;;;11.00;9.80;;;;;;;;;;5010693;28;20046;-84
2022/09/22 05:58:39;;;;;;;11.60;9.82;;;;;;;;;;5015268;28;20056;-84
2022/09/22 06:01:05;;;;;;;15.25;10.30;;;;;;;;;;5010731;28;20141;-83
2022/09/22 06:03:34;;;;;;;11.02;8.52;;;;;;;;;;5015572;28;20049;-84
2022/09/22 06:06:00;;;;;;;11.98;9.73;;;;;;;;;;5009592;28;20043;-83
2022/09/22 06:08:26;;;;;;;10.77;8.70;;;;;;;;;;5027758;28;20053;-83
2022/09/22 06:10:52;;;;;;;13.02;9.05;;;;;;;;;;5007547;28;20050;-83
2022/09/22 06:13:18;;;;;;;13.07;8.98;;;;;;;;;;5011744;28;20038;-82
2022/09/22 06:15:47;;;;;;;12.27;9.38;;;;;;;;;;5015865;28;20499;-83
2022/09/22 06:18:16;;;;;;;11.75;9.48;;;;;;;;;;5012091;28;20099;-82
2022/09/22 06:20:43;;;;;;;12.00;8.75;;;;;;;;;;5013072;28;20139;-83
2022/09/22 06:23:09;;;;;;;15.57;10.23;;;;;;;;;;5011398;28;20053;-82
2022/09/22 06:25:35;;;;;;;15.00;10.18;;;;;;;;;;5012941;28;20038;-82
2022/09/22 06:28:04;;;;;;;11.75;8.82;;;;;;;;;;5014564;28;20050;-82
2022/09/22 06:30:30;;;;;;;14.55;8.02;;;;;;;;;;5011788;28;20046;-83
2022/09/22 06:32:56;;;;;;;9.30;6.55;;;;;;;;;;5013712;28;20507;-82
2022/09/22 06:35:23;;;;;;;14.95;6.82;;;;;;;;;;5015707;28;20172;-82
2022/09/22 06:37:56;;;;;;;10.38;6.68;;;;;;;;;;5013397;28;20108;-85
2022/09/22 06:40:22;;;;;;;10.88;6.15;;;;;;;;;;5015139;28;20054;-83
2022/09/22 06:42:48;;;;;;;9.23;5.45;;;;;;;;;;5014444;28;20507;-83
2022/09/22 06:45:16;;;;;;;12.80;5.93;;;;;;;;;;5015522;28;20619;-83
2022/09/22 06:47:42;;;;;;;8.70;5.70;;;;;;;;;;5015519;28;20447;-83
2022/09/22 06:50:08;;;;;;;9.32;5.63;;;;;;;;;;5010907;28;20096;-83
2022/09/22 06:52:35;;;;;;;13.02;5.32;;;;;;;;;;5008993;28;20050;-83
2022/09/22 06:55:01;;;;;;;9.40;5.78;;;;;;;;;;4997841;28;20412;-83
2022/09/22 06:57:29;;;;;;;10.25;5.70;;;;;;;;;;5007661;28;20137;-83
2022/09/22 06:59:55;;;;;;;9.63;5.10;;;;;;;;;;5013277;28;20046;-83
2022/09/22 07:02:26;;;;;;;10.45;6.07;;;;;;;;;;5015141;28;20058;-83
2022/09/22 07:04:52;;;;;;;10.57;5.85;;;;;;;;;;5038782;28;20072;-83
2022/09/22 07:07:18;;;;;;;12.38;5.90;;;;;;;;;;5005969;28;20053;-83
2022/09/22 07:09:45;;;;;;;10.35;4.75;;;;;;;;;;5013545;28;20420;-83
2022/09/22 07:12:11;;;;;;;12.27;5.40;;;;;;;;;;5022487;28;20411;-83
2022/09/22 07:14:37;;;;;;;7.97;4.93;;;;;;;;;;5016139;28;20054;-83
2022/09/22 07:17:03;;;;;;;13.02;5.88;;;;;;;;;;5034988;28;20095;-84
2022/09/22 07:19:35;;;;;;;11.07;5.07;;;;;;;;;;5021844;28;20042;-82
2022/09/22 07:22:02;;;;;;;8.15;5.35;;;;;;;;;;5045848;28;20053;-83
2022/09/22 07:24:28;;;;;;;11.45;5.07;;;;;;;;;;5008984;28;20449;-83
2022/09/22 07:26:54;;;;;;;11.15;5.30;;;;;;;;;;4995249;28;20046;-84
2022/09/22 07:29:20;;;;;;;8.38;4.78;;;;;;;;;;5002276;28;20426;-84
2022/09/22 07:31:46;;;;;;;11.40;5.22;;;;;;;;;;5014641;28;20141;-84
2022/09/22 07:34:15;;;;;;;12.90;5.45;;;;;;;;;;5045589;28;20476;-84
2022/09/22 07:36:41;;;;;;;10.45;4.85;;;;;;;;;;5014875;28;20049;-84
2022/09/22 07:39:09;;;;;;;13.27;5.32;;;;;;;;;;5030071;28;20042;-84
2022/09/22 07:41:41;;;;;;;8.95;4.90;;;;;;;;;;5018887;28;20102;-84
2022/09/22 07:46:53;;;;;;;7.22;4.85;;;;;;;;;;4995268;28;20073;-84
2022/09/22 07:49:21;;;;;;;12.13;5.30;;;;;;;;;;4998990;28;20066;-84
2022/09/22 07:51:48;;;;;;;11.68;5.63;;;;;;;;;;5014639;28;20046;-84
2022/09/22 07:54:14;;;;;;;10.00;5.45;;;;;;;;;;5014572;28;20045;-84
2022/09/22 07:56:44;;;;;;;10.63;5.90;;;;;;;;;;5025879;28;20407;-84
2022/09/22 07:59:11;;;;;;;10.70;5.88;;;;;;;;;;5017860;28;20046;-84
2022/09/22 08:01:40;;;;;;;10.13;5.63;;;;;;;;;;5016302;28;20049;-84
2022/09/22 08:04:14;;;;;;;14.07;6.00;;;;;;;;;;5015970;28;20096;-84
2022/09/22 08:06:40;;;;;;;10.82;5.70;;;;;;;;;;5015703;28;20057;-83
2022/09/22 08:09:07;;;;;;;11.65;5.63;;;;;;;;;;5013500;28;20054;-84
2022/09/22 08:11:33;;;;;;;10.50;5.78;;;;;;;;;;5058017;28;20483;-84
2022/09/22 08:14:00;;;;;;;12.02;5.85;;;;;;;;;;5011288;28;20049;-84
2022/09/22 08:16:28;;;;;;;11.85;6.20;;;;;;;;;;5012844;28;20061;-83
2022/09/22 08:18:55;;;;;;;11.13;5.70;;;;;;;;;;5013478;28;20183;-83
2022/09/22 08:21:22;;;;;;;11.48;6.30;;;;;;;;;;5004410;28;20092;-83
2022/09/22 08:23:51;;;;;;;13.65;6.10;;;;;;;;;;5008310;28;20480;-83
2022/09/22 08:26:17;;;;;;;11.27;5.25;;;;;;;;;;5012235;28;20116;-83
2022/09/22 08:28:43;;;;;;;10.30;5.65;;;;;;;;;;5010877;28;20046;-84
2022/09/22 08:31:13;;;;;;;10.40;5.65;;;;;;;;;;5013369;28;20404;-84
2022/09/22 08:33:41;;;;;;;10.55;5.75;;;;;;;;;;5012535;28;20042;-84
2022/09/22 08:36:07;;;;;;;9.15;5.15;;;;;;;;;;5013274;28;20053;-83
2022/09/22 08:38:34;;;;;;;8.50;5.07;;;;;;;;;;5017956;28;20104;-84
2022/09/22 08:41:20;;;;;;;13.10;5.95;;;;;;;;;;5017361;28;20042;-84
2022/09/22 08:44:03;;;;;;;11.77;5.72;;;;;;;;;;5013289;28;20046;-84
2022/09/22 08:46:31;;;;;;;10.98;5.30;;;;;;;;;;5013235;28;20480;-84
2022/09/22 08:51:52;;;;;;;9.27;5.18;;;;;;;;;;5016090;28;20061;-84
2022/09/22 08:54:19;;;;;;;8.65;4.85;;;;;;;;;;5011539;28;20042;-83
2022/09/22 08:57:10;;;;;;;12.63;5.43;;;;;;;;;;5013308;28;20049;-84
2022/09/22 08:59:43;;;;;;;10.40;4.67;;;;;;;;;;5005611;28;20104;-83
2022/09/22 09:02:28;;;;;;;10.30;4.80;;;;;;;;;;5012924;28;20125;-84
2022/09/22 09:05:10;;;;;;;9.60;4.60;;;;;;;;;;5011786;28;20049;-84
2022/09/22 09:07:42;;;;;;;10.60;4.93;;;;;;;;;;5011220;28;20052;-84
2022/09/22 09:10:14;;;;;;;10.77;5.10;;;;;;;;;;5012788;28;20042;-84
2022/09/22 09:12:52;;;;;;;13.35;4.90;;;;;;;;;;5013076;28;20388;-84
2022/09/22 09:15:18;;;;;;;8.13;4.15;;;;;;;;;;5013353;28;20385;-83
2022/09/22 09:17:46;;;;;;;9.13;4.13;;;;;;;;;;5010547;28;20049;-83
2022/09/22 09:20:12;;;;;;;9.95;4.60;;;;;;;;;;5010104;28;20120;-84
2022/09/22 09:22:42;;;;;;;8.02;3.97;;;;;;;;;;5011933;28;20129;-83
2022/09/22 09:25:14;;;;;;;8.43;4.70;;;;;;;;;;5012459;28;20045;-84
2022/09/22 09:27:42;;;;;;;9.18;4.45;;;;;;;;;;5011789;28;20104;-85
2022/09/22 09:30:17;;;;;;;10.70;4.80;;;;;;;;;;5008745;28;20069;-84
2022/09/22 09:32:47;;;;;;;9.93;4.40;;;;;;;;;;4998788;28;20076;-84
2022/09/22 09:35:14;;;;;;;8.75;3.97;;;;;;;;;;5010391;28;20046;-84
2022/09/22 09:37:42;;;;;;;8.98;3.85;;;;;;;;;;5009893;28;20046;-84
2022/09/22 09:40:14;;;;;;;8.82;4.20;;;;;;;;;;5006406;28;20404;-83
2022/09/22 09:42:40;;;;;;;8.80;4.10;;;;;;;;;;5040707;28;20046;-84
2022/09/22 09:45:11;;;;;;;7.65;4.15;;;;;;;;;;5009386;28;20477;-86
2022/09/22 09:47:40;;;;;;;8.60;3.65;;;;;;;;;;5011539;28;20046;-85
2022/09/22 09:50:08;;;;;;;8.95;3.75;;;;;;;;;;5006806;28;20080;-84
2022/09/22 09:52:36;;;;;;;8.30;3.40;;;;;;;;;;5010180;28;20050;-86
2022/09/22 09:55:03;;;;;;;7.80;3.25;;;;;;;;;;5012881;28;20068;-86
2022/09/22 09:57:29;;;;;;;7.18;2.90;;;;;;;;;;5011116;28;20050;-85
2022/09/22 10:00:34;;;;;;;8.80;3.40;;;;;;;;;;5010190;28;20143;-84
2022/09/22 10:03:19;;;;;;;7.43;2.72;;;;;;;;;;4989819;28;20038;-84
2022/09/22 10:05:59;;;;;;;8.50;2.72;;;;;;;;;;4981325;28;20046;-85
2022/09/22 10:08:26;;;;;;;7.20;2.70;;;;;;;;;;4981230;28;20058;-84
2022/09/22 10:11:00;;;;;;;7.90;2.70;;;;;;;;;;4987874;28;20137;-88
2022/09/22 10:13:34;;;;;;;7.20;2.67;;;;;;;;;;4993393;28;20046;-85
2022/09/22 10:16:19;;;;;;;6.55;2.65;;;;;;;;;;5009071;28;20503;-83
2022/09/22 10:18:46;;;;;;;6.35;2.40;;;;;;;;;;4992740;28;20396;-83
2022/09/22 10:21:14;;;;;;;7.90;2.75;;;;;;;;;;4992117;28;20606;-83
2022/09/22 10:23:41;;;;;;;7.88;2.35;;;;;;;;;;4990840;28;20138;-83
2022/09/22 10:26:26;;;;;;;6.53;2.20;;;;;;;;;;4990081;28;20457;-83
2022/09/22 10:29:10;;;;;;;7.30;2.72;;;;;;;;;;4994862;28;20062;-83
2022/09/22 10:31:37;;;;;;;6.53;2.33;;;;;;;;;;4992575;28;20137;-83
2022/09/22 10:34:20;;;;;;;8.55;2.33;;;;;;;;;;4990794;28;20531;-84
2022/09/22 10:36:47;;;;;;;6.93;2.25;;;;;;;;;;5002851;28;20081;-84
2022/09/22 10:39:16;;;;;;;6.93;2.40;;;;;;;;;;5014748;28;20373;-83
2022/09/22 10:41:44;;;;;;;7.68;2.60;;;;;;;;;;5012255;28;20065;-83
2022/09/22 10:44:18;;;;;;;8.05;2.20;;;;;;;;;;5010675;28;20080;-84
2022/09/22 10:46:47;;;;;;;7.70;2.20;;;;;;;;;;5015452;28;20056;-84
2022/09/22 10:49:32;;;;;;;8.80;2.35;;;;;;;;;;5014585;28;20050;-83
2022/09/22 10:52:07;;;;;;;8.25;2.72;;;;;;;;;;5011164;28;20050;-84
2022/09/22 10:54:56;;;;;;;27.67;2.60;;;;;;;;;;5012556;28;20046;-82
2022/09/22 10:57:28;;;;;;;7.68;2.35;;;;;;;;;;5012577;28;20089;-82
2022/09/22 11:00:12;;;;;;;7.75;2.53;;;;;;;;;;5005732;28;20046;-84
2022/09/22 11:02:57;;;;;;;7.82;2.35;;;;;;;;;;5005973;28;20038;-83
2022/09/22 11:14:15;;;;;;;6.97;2.45;;;;;;;;;;5008435;28;20057;-82
2022/09/22 11:16:56;;;;;;;11.05;2.90;;;;;;;;;;5006545;28;20061;-83
2022/09/22 11:19:33;;;;;;;8.70;3.00;;;;;;;;;;4997131;28;20449;-81
2022/09/22 11:22:12;;;;;;;7.65;2.40;;;;;;;;;;5043640;28;20057;-84
2022/09/22 11:24:47;;;;;;;8.20;2.53;;;;;;;;;;5010957;28;20164;-83
2022/09/22 11:27:26;;;;;;;7.95;2.72;;;;;;;;;;5011104;28;20100;-82
2022/09/22 11:30:20;;;;;;;8.45;2.83;;;;;;;;;;5012386;28;20066;-83
2022/09/22 11:33:01;;;;;;;8.18;2.28;;;;;;;;;;5012486;28;20085;-82
2022/09/22 11:35:45;;;;;;;7.78;2.40;;;;;;;;;;5012064;28;20077;-84
2022/09/22 11:38:26;;;;;;;6.75;2.45;;;;;;;;;;5009541;28;20049;-81
2022/09/22 11:41:01;;;;;;;8.65;2.60;;;;;;;;;;5014734;28;20470;-82
2022/09/22 11:43:35;;;;;;;6.53;2.42;;;;;;;;;;5010729;28;20494;-82
2022/09/22 11:46:20;;;;;;;7.05;2.28;;;;;;;;;;5008211;28;20120;-81
2022/09/22 11:48:52;;;;;;;8.65;2.70;;;;;;;;;;4994884;28;20074;-82
2022/09/22 11:51:27;;;;;;;8.02;2.88;;;;;;;;;;5001349;28;20046;-84
2022/09/22 11:54:03;;;;;;;8.90;2.92;;;;;;;;;;4994642;28;20046;-84
2022/09/22 11:56:40;;;;;;;7.32;2.33;;;;;;;;;;5014411;28;20045;-84
2022/09/22 11:59:29;;;;;;;8.43;2.67;;;;;;;;;;5055060;28;20064;-83
2022/09/22 12:01:57;;;;;;;9.18;2.90;;;;;;;;;;5008699;28;20116;-83
2022/09/22 12:04:29;;;;;;;7.72;3.08;;;;;;;;;;5011076;28;20042;-82
2022/09/22 12:06:56;;;;;;;7.90;3.22;;;;;;;;;;4998051;28;20050;-82
2022/09/22 12:09:25;;;;;;;7.40;2.90;;;;;;;;;;5007739;28;20060;-80
2022/09/22 12:11:52;;;;;;;7.18;2.70;;;;;;;;;;5011998;28;20061;-80
2022/09/22 12:14:18;;;;;;;8.75;2.97;;;;;;;;;;5008348;28;20088;-80
2022/09/22 12:16:44;;;;;;;45.78;6.85;;;;;;;;;;5013563;28;20119;-80
2022/09/22 12:19:12;;;;;;;22.05;3.90;;;;;;;;;;5013587;28;20050;-80
2022/09/22 12:21:54;;;;;;;9.88;3.28;;;;;;;;;;5012992;28;20129;-80
2022/09/22 12:24:21;;;;;;;8.50;3.13;;;;;;;;;;5013386;28;20123;-80
2022/09/22 12:26:49;;;;;;;9.27;3.60;;;;;;;;;;5011680;28;20054;-80
2022/09/22 12:29:15;;;;;;;8.88;3.30;;;;;;;;;;5012377;28;20046;-80
2022/09/22 12:31:44;;;;;;;7.82;3.42;;;;;;;;;;5011701;28;20045;-80
2022/09/22 12:34:17;;;;;;;8.98;3.72;;;;;;;;;;5011654;28;20464;-80
2022/09/22 12:36:43;;;;;;;8.82;2.97;;;;;;;;;;5009591;28;20088;-80
2022/09/22 12:39:22;;;;;;;10.02;3.10;;;;;;;;;;5011557;28;20145;-81
2022/09/22 12:41:51;;;;;;;10.27;3.55;;;;;;;;;;5009022;28;20345;-82
2022/09/22 12:44:46;;;;;;;7.00;3.33;;;;;;;;;;5011852;28;20057;-82
2022/09/22 12:47:18;;;;;;;7.85;3.90;;;;;;;;;;5008762;28;20172;-81
2022/09/22 12:49:55;;;;;;;8.27;3.00;;;;;;;;;;5010235;28;20057;-81
2022/09/22 12:52:56;;;;;;;8.50;3.58;;;;;;;;;;5009901;28;20503;-81
2022/09/22 12:55:39;;;;;;;9.20;3.25;;;;;;;;;;5013051;28;20158;-80
2022/09/22 12:58:20;;;;;;;11.68;3.95;;;;;;;;;;5012219;28;20061;-81
2022/09/22 13:00:49;;;;;;;11.50;3.53;;;;;;;;;;5010477;28;20116;-81
2022/09/22 13:03:24;;;;;;;10.20;3.08;;;;;;;;;;5004685;28;20042;-81
2022/09/22 13:05:51;;;;;;;10.73;3.47;;;;;;;;;;5012330;28;20041;-81
2022/09/22 13:08:21;;;;;;;8.82;2.83;;;;;;;;;;5013908;28;20065;-81
2022/09/22 13:10:52;;;;;;;6.65;3.15;;;;;;;;;;5011675;28;20096;-81
2022/09/22 13:13:23;;;;;;;7.05;2.95;;;;;;;;;;5011415;28;20396;-81
2022/09/22 13:15:49;;;;;;;9.80;2.95;;;;;;;;;;5006931;28;20076;-81
2022/09/22 13:18:36;;;;;;;9.25;3.20;;;;;;;;;;5008115;28;20108;-81
2022/09/22 13:21:15;;;;;;;8.70;2.80;;;;;;;;;;5032119;28;20057;-81
2022/09/22 13:23:56;;;;;;;8.43;3.33;;;;;;;;;;5000215;28;20064;-81
2022/09/22 13:26:28;;;;;;;10.00;3.05;;;;;;;;;;5010257;28;20129;-82
2022/09/22 13:29:21;;;;;;;7.80;2.80;;;;;;;;;;5027651;28;20058;-81
2022/09/22 13:31:50;;;;;;;6.78;2.92;;;;;;;;;;5037546;28;20129;-82
2022/09/22 13:34:25;;;;;;;8.25;2.97;;;;;;;;;;5009417;28;20476;-82
2022/09/22 13:36:57;;;;;;;7.15;3.00;;;;;;;;;;5013580;28;20142;-82
2022/09/22 13:39:24;;;;;;;7.80;2.72;;;;;;;;;;5044137;28;20535;-82
2022/09/22 13:41:52;;;;;;;6.35;2.72;;;;;;;;;;5043228;28;20042;-82
2022/09/22 13:44:22;;;;;;;7.57;3.17;;;;;;;;;;5010176;28;20057;-82
2022/09/22 13:46:49;;;;;;;7.93;3.13;;;;;;;;;;5014209;28;20049;-84
2022/09/22 13:49:17;;;;;;;8.05;3.40;;;;;;;;;;5014627;28;20458;-83
2022/09/22 13:51:49;;;;;;;8.40;3.00;;;;;;;;;;5013225;28;20487;-81
2022/09/22 13:54:18;;;;;;;20.70;4.30;;;;;;;;;;5014807;28;20046;-81
2022/09/22 13:56:46;;;;;;;19.38;4.30;;;;;;;;;;5014777;28;20069;-80
2022/09/22 13:59:13;;;;;;;10.82;2.90;;;;;;;;;;5014284;28;20057;-78
2022/09/22 14:01:45;;;;;;;8.77;3.33;;;;;;;;;;5012155;28;20042;-79
2022/09/22 14:04:25;;;;;;;9.35;3.53;;;;;;;;;;5014853;28;20129;-82
2022/09/22 14:06:58;;;;;;;8.15;2.80;;;;;;;;;;5006609;28;20369;-80
2022/09/22 14:09:25;;;;;;;10.18;2.78;;;;;;;;;;5007348;28;20104;-81
2022/09/22 14:11:51;;;;;;;7.25;2.75;;;;;;;;;;5005000;28;20038;-79
2022/09/22 14:14:22;;;;;;;8.35;2.90;;;;;;;;;;5007100;28;20119;-80
2022/09/22 14:16:57;;;;;;;12.80;3.90;;;;;;;;;;5004511;28;20046;-80
2022/09/22 14:19:35;;;;;;;8.70;3.42;;;;;;;;;;5002997;28;20450;-81
2022/09/22 14:22:02;;;;;;;11.75;4.13;;;;;;;;;;5014076;28;20119;-81
2022/09/22 14:24:29;;;;;;;7.15;3.42;;;;;;;;;;5015724;28;20124;-81
2022/09/22 14:27:03;;;;;;;7.70;3.00;;;;;;;;;;5019730;28;20056;-80
2022/09/22 14:29:29;;;;;;;7.20;2.65;;;;;;;;;;5020380;28;20452;-81
2022/09/22 14:32:01;;;;;;;9.85;2.90;;;;;;;;;;5015304;28;20548;-83
2022/09/22 14:34:30;;;;;;;8.77;2.70;;;;;;;;;;5008814;28;20043;-82
2022/09/22 14:36:57;;;;;;;6.57;2.53;;;;;;;;;;5013244;28;20400;-81
2022/09/22 14:39:25;;;;;;;7.63;2.85;;;;;;;;;;5015047;28;20050;-81
2022/09/22 14:41:57;;;;;;;8.82;2.83;;;;;;;;;;5014242;28;20079;-80
2022/09/22 14:44:42;;;;;;;8.18;3.30;;;;;;;;;;5013137;28;20054;-81
2022/09/22 14:47:17;;;;;;;8.85;2.85;;;;;;;;;;5014973;28;20042;-82
2022/09/22 14:49:43;;;;;;;9.43;2.67;;;;;;;;;;5012037;28;20033;-80
2022/09/22 14:52:21;;;;;;;9.48;2.90;;;;;;;;;;5014430;28;20125;-82
2022/09/22 14:54:48;;;;;;;6.80;2.85;;;;;;;;;;5009506;28;20116;-82
2022/09/22 14:57:18;;;;;;;9.70;2.60;;;;;;;;;;5006056;28;20038;-81
2022/09/22 15:02:35;;;;;;;7.28;3.10;;;;;;;;;;5012879;28;20093;-81
2022/09/22 15:05:02;;;;;;;7.63;2.97;;;;;;;;;;5009780;28;20486;-80
2022/09/22 15:07:28;;;;;;;9.70;2.78;;;;;;;;;;5040034;28;20049;-80
2022/09/22 15:09:58;;;;;;;7.20;3.15;;;;;;;;;;5015726;28;20049;-81
2022/09/22 15:12:42;;;;;;;7.93;3.08;;;;;;;;;;5014873;28;20064;-83
2022/09/22 15:15:18;;;;;;;7.13;2.30;;;;;;;;;;5043675;28;20056;-83
2022/09/22 15:20:40;;;;;;;7.13;2.55;;;;;;;;;;5011238;28;20484;-83